VNO weather

Vilnius International Airport
Vilnius, Vilnius County, Lithuania

Public forecast

Using degrees Celsius for public forecast. Weather courtesy of forecast.io.

Current aviation weather report (METAR) for Vilnius International Airport

Retrieved 2019/12/16 12:20 UTC (18 minutes ago):

EYVI 161220Z 26010KT 9999 BKN020 05/01 Q1011 R19/2///95 NOSIG

Aviation forecast (TAF) for Vilnius International Airport

Retrieved 2019/12/16 12:03 UTC (35 minutes ago):

TAF TAF EYVI 161100Z 1612/1712 23012KT 8000 BKN015 TEMPO 1615/1618 5000 BR SCT005 BKN010 BECMG 1618/1619 17010KT 5000 BR BKN005 TEMPO 1619/1703 3000 BECMG 1706/1708 1500 OVC002 BECMG 1709/1710 0400 FG